createdAt,value
2019-06-15T00:00:20.987Z,76.34
2019-06-15T00:02:49.386Z,76.13
2019-06-15T00:05:17.796Z,76.11
2019-06-15T00:07:46.214Z,75.97
2019-06-15T00:10:14.705Z,77.21
2019-06-15T00:12:43.209Z,78.13
2019-06-15T00:15:11.934Z,78.27
2019-06-15T00:17:40.350Z,79.01
2019-06-15T00:20:09.122Z,79.41
2019-06-15T00:22:37.523Z,79.07
2019-06-15T00:25:08.996Z,79.04
2019-06-15T00:27:37.413Z,78.17
2019-06-15T00:30:10.885Z,78.03
2019-06-15T00:32:39.384Z,77.66
2019-06-15T00:35:11.233Z,76.87
2019-06-15T00:37:39.660Z,76.45
2019-06-15T00:40:08.713Z,75.76
2019-06-15T00:42:37.144Z,75.83
2019-06-15T00:45:06.383Z,76.42
2019-06-15T00:47:34.798Z,76.46
2019-06-15T00:50:03.383Z,77.08
2019-06-15T00:52:31.799Z,76.99
2019-06-15T00:55:00.216Z,77.10
2019-06-15T00:57:28.632Z,77.05
2019-06-15T00:59:57.040Z,76.41
2019-06-15T01:02:25.566Z,75.93
2019-06-15T01:04:53.985Z,75.96
2019-06-15T01:07:22.408Z,75.48
2019-06-15T01:09:50.817Z,75.76
2019-06-15T01:12:19.239Z,75.70
2019-06-15T01:14:47.651Z,75.74
2019-06-15T01:17:16.073Z,75.41
2019-06-15T01:19:44.497Z,74.65
2019-06-15T01:22:12.918Z,74.23
2019-06-15T01:24:41.338Z,74.27
2019-06-15T01:27:12.558Z,74.70
2019-06-15T01:29:41.039Z,75.10
2019-06-15T01:32:09.493Z,74.68
2019-06-15T01:34:37.922Z,74.95
2019-06-15T01:37:06.365Z,74.43
2019-06-15T01:39:34.775Z,73.69
2019-06-15T01:42:03.358Z,73.55
2019-06-15T01:44:31.768Z,73.21
2019-06-15T01:47:00.203Z,73.03
2019-06-15T01:49:28.614Z,72.63
2019-06-15T01:51:57.035Z,72.56
2019-06-15T01:54:25.454Z,72.26
2019-06-15T01:56:53.876Z,72.65
2019-06-15T01:59:22.280Z,71.68
2019-06-15T02:02:01.203Z,70.91
2019-06-15T02:04:29.621Z,70.30
2019-06-15T02:06:58.199Z,69.70
2019-06-15T02:09:26.664Z,69.29
2019-06-15T02:11:55.308Z,69.26
2019-06-15T02:14:23.716Z,69.23
2019-06-15T02:16:52.186Z,68.82
2019-06-15T02:19:22.114Z,69.16
2019-06-15T02:21:50.520Z,69.51
2019-06-15T02:24:21.779Z,69.77
2019-06-15T02:26:52.303Z,70.35
2019-06-15T02:29:26.264Z,71.99
2019-06-15T02:31:54.694Z,73.70
2019-06-15T02:34:23.112Z,75.44
2019-06-15T02:36:51.523Z,76.28
2019-06-15T02:39:19.975Z,75.85
2019-06-15T02:41:48.962Z,74.59
2019-06-15T02:44:17.711Z,74.54
2019-06-15T02:46:46.496Z,76.59
2019-06-15T02:49:14.915Z,76.13
2019-06-15T02:51:43.345Z,76.10
2019-06-15T02:54:11.780Z,75.78
2019-06-15T02:56:40.199Z,76.50
2019-06-15T02:59:08.643Z,79.17
2019-06-15T03:01:37.051Z,80.33
2019-06-15T03:04:05.663Z,80.72
2019-06-15T03:06:34.440Z,81.63
2019-06-15T03:09:03.218Z,83.42
2019-06-15T03:11:31.673Z,83.97
2019-06-15T03:14:00.457Z,83.01
2019-06-15T03:16:28.885Z,82.99
2019-06-15T03:18:57.395Z,82.57
2019-06-15T03:21:25.837Z,83.92
2019-06-15T03:23:54.286Z,85.73
2019-06-15T03:26:22.694Z,85.76
2019-06-15T03:28:51.123Z,86.07
2019-06-15T03:31:19.540Z,87.19
2019-06-15T03:33:48.011Z,87.93
2019-06-15T03:36:16.422Z,88.99
2019-06-15T03:38:44.853Z,89.71
2019-06-15T03:41:13.272Z,90.00
2019-06-15T03:43:41.735Z,90.23
2019-06-15T03:46:10.139Z,91.16
2019-06-15T03:48:38.581Z,91.68
2019-06-15T03:51:07.053Z,92.74
2019-06-15T03:53:35.503Z,93.53
2019-06-15T03:56:03.951Z,93.23
2019-06-15T03:58:32.405Z,92.82
2019-06-15T04:01:12.399Z,92.73
2019-06-15T04:03:40.830Z,92.94
2019-06-15T04:06:09.272Z,91.60
2019-06-15T04:08:37.691Z,90.65
2019-06-15T04:11:06.115Z,90.14
2019-06-15T04:13:34.529Z,89.53
2019-06-15T04:16:02.967Z,88.68
2019-06-15T04:18:31.410Z,87.41
2019-06-15T04:21:00.095Z,87.17
2019-06-15T04:23:28.511Z,86.10
2019-06-15T04:25:56.957Z,85.35
2019-06-15T04:28:25.376Z,87.08
2019-06-15T04:30:53.801Z,89.92
2019-06-15T04:33:22.219Z,92.70
2019-06-15T04:35:50.703Z,94.74
2019-06-15T04:38:20.692Z,95.49
2019-06-15T04:40:49.112Z,95.45
2019-06-15T04:43:17.579Z,95.29
2019-06-15T04:45:46.025Z,93.88
2019-06-15T04:48:14.510Z,92.41
2019-06-15T04:50:42.953Z,90.29
2019-06-15T04:53:11.397Z,89.50
2019-06-15T04:55:39.865Z,88.79
2019-06-15T04:58:08.313Z,88.88
2019-06-15T05:00:36.768Z,87.21
2019-06-15T05:03:05.280Z,85.93
2019-06-15T05:05:33.912Z,84.81
2019-06-15T05:08:02.394Z,85.07
2019-06-15T05:10:30.825Z,86.53
2019-06-15T05:12:59.249Z,87.25
2019-06-15T05:15:27.723Z,88.27
2019-06-15T05:17:56.195Z,88.23
2019-06-15T05:20:24.659Z,88.56
2019-06-15T05:22:53.174Z,88.94
2019-06-15T05:25:21.604Z,89.47
2019-06-15T05:27:51.829Z,89.78
2019-06-15T05:30:20.371Z,89.08
2019-06-15T05:32:48.841Z,89.55
2019-06-15T05:35:17.455Z,90.16
2019-06-15T05:37:45.940Z,90.93
2019-06-15T05:40:17.873Z,91.74
2019-06-15T05:42:48.091Z,92.04
2019-06-15T05:45:18.447Z,92.82
2019-06-15T05:47:46.878Z,92.78
2019-06-15T05:50:15.687Z,92.88
2019-06-15T05:52:44.121Z,92.18
2019-06-15T05:55:13.114Z,92.32
2019-06-15T05:57:41.576Z,91.43
2019-06-15T06:00:11.941Z,91.14
2019-06-15T06:02:47.178Z,90.39
2019-06-15T06:05:20.969Z,90.33
2019-06-15T06:07:49.291Z,89.90
2019-06-15T06:10:17.862Z,89.46
2019-06-15T06:12:46.295Z,88.93
2019-06-15T06:15:16.070Z,87.95
2019-06-15T06:17:44.517Z,87.76
2019-06-15T06:20:13.176Z,86.48
2019-06-15T06:22:41.606Z,85.22
2019-06-15T06:25:12.668Z,85.04
2019-06-15T06:27:41.144Z,83.09
2019-06-15T06:30:11.139Z,82.82
2019-06-15T06:32:39.627Z,81.87
2019-06-15T06:35:08.819Z,79.70
2019-06-15T06:37:37.258Z,79.73
2019-06-15T06:40:08.922Z,79.35
2019-06-15T06:42:38.122Z,78.56
2019-06-15T06:45:18.358Z,77.58
2019-06-15T06:47:46.829Z,77.52
2019-06-15T06:50:15.796Z,77.46
2019-06-15T06:52:44.258Z,77.93
2019-06-15T06:55:13.726Z,77.47
2019-06-15T06:57:52.367Z,77.82
2019-06-15T07:00:14.033Z,76.82
2019-06-15T07:02:42.462Z,77.46
2019-06-15T07:05:12.251Z,76.71
2019-06-15T07:07:40.672Z,76.21
2019-06-15T07:10:10.135Z,77.52
2019-06-15T07:12:38.583Z,77.58
2019-06-15T07:15:07.612Z,77.59
2019-06-15T07:17:36.281Z,77.01
2019-06-15T07:20:07.082Z,76.09
2019-06-15T07:22:35.509Z,75.68
2019-06-15T07:25:05.998Z,75.86
2019-06-15T07:27:34.455Z,75.46
2019-06-15T07:30:03.941Z,76.12
2019-06-15T07:32:32.357Z,75.38
2019-06-15T07:35:00.789Z,74.51
2019-06-15T07:37:29.234Z,75.89
2019-06-15T07:39:57.642Z,73.63
2019-06-15T07:42:26.101Z,73.41
2019-06-15T07:44:54.576Z,72.23
2019-06-15T07:47:23.030Z,72.12
2019-06-15T07:49:51.489Z,72.83
2019-06-15T07:52:19.890Z,72.46
2019-06-15T07:54:49.910Z,72.78
2019-06-15T07:57:18.351Z,72.44
2019-06-15T07:59:47.061Z,72.69
2019-06-15T08:02:15.530Z,72.99
2019-06-15T08:04:43.936Z,71.42
2019-06-15T08:07:12.437Z,70.81
2019-06-15T08:09:40.880Z,71.14
2019-06-15T08:12:09.336Z,71.81
2019-06-15T08:14:37.767Z,69.84
2019-06-15T08:17:06.285Z,67.88
2019-06-15T08:19:34.687Z,67.84
2019-06-15T08:22:03.188Z,66.77
2019-06-15T08:24:31.679Z,66.79
2019-06-15T08:27:00.099Z,66.45
2019-06-15T08:29:28.557Z,65.25
2019-06-15T08:31:56.990Z,64.61
2019-06-15T08:34:25.428Z,65.26
2019-06-15T08:36:53.892Z,61.35
2019-06-15T08:39:22.323Z,61.26
2019-06-15T08:41:50.744Z,59.18
2019-06-15T08:44:19.178Z,58.92
2019-06-15T08:46:47.608Z,60.11
2019-06-15T08:49:16.030Z,61.77
2019-06-15T08:51:44.452Z,61.29
2019-06-15T08:54:12.907Z,60.24
2019-06-15T08:56:41.332Z,60.21
2019-06-15T08:59:09.805Z,57.63
2019-06-15T09:01:38.219Z,57.87
2019-06-15T09:04:06.652Z,58.66
2019-06-15T09:06:35.069Z,56.92
2019-06-15T09:09:04.144Z,57.56
2019-06-15T09:11:32.593Z,55.51
2019-06-15T09:14:01.289Z,54.11
2019-06-15T09:16:29.725Z,55.45
2019-06-15T09:18:58.178Z,54.52
2019-06-15T09:21:29.629Z,56.29
2019-06-15T09:23:58.031Z,56.35
2019-06-15T09:26:26.456Z,54.44
2019-06-15T09:29:09.998Z,56.34
2019-06-15T09:31:26.830Z,57.00
2019-06-15T09:33:55.248Z,57.75
2019-06-15T09:36:23.680Z,59.16
2019-06-15T09:38:56.643Z,58.15
2019-06-15T09:41:25.066Z,57.52
2019-06-15T09:43:53.488Z,56.96
2019-06-15T09:46:21.954Z,56.66
2019-06-15T09:48:50.364Z,58.58
2019-06-15T09:51:18.786Z,59.14
2019-06-15T09:53:47.204Z,60.53
2019-06-15T09:56:15.627Z,62.07
2019-06-15T09:58:44.056Z,62.71
2019-06-15T10:01:12.488Z,62.05
2019-06-15T10:03:40.916Z,62.46
2019-06-15T10:06:11.770Z,63.75
2019-06-15T10:08:39.712Z,63.32
2019-06-15T10:11:08.192Z,64.13
2019-06-15T10:13:36.600Z,64.37
2019-06-15T10:16:19.130Z,63.60
2019-06-15T10:18:38.635Z,64.58
2019-06-15T10:21:05.658Z,63.97
2019-06-15T10:23:34.065Z,64.01
2019-06-15T10:26:02.480Z,64.61
2019-06-15T10:28:30.942Z,64.92
2019-06-15T10:31:00.827Z,65.79
2019-06-15T10:33:29.486Z,66.62
2019-06-15T10:35:57.868Z,65.87
2019-06-15T10:38:26.307Z,66.45
2019-06-15T10:40:54.728Z,66.55
2019-06-15T10:43:23.183Z,65.70
2019-06-15T10:45:51.591Z,65.67
2019-06-15T10:48:20.108Z,65.08
2019-06-15T10:50:48.611Z,65.74
2019-06-15T10:53:17.221Z,67.72
2019-06-15T10:55:45.674Z,68.08
2019-06-15T10:58:14.098Z,69.09
2019-06-15T11:00:51.080Z,68.62
2019-06-15T11:03:19.434Z,69.13
2019-06-15T11:05:47.873Z,67.12
2019-06-15T11:08:16.338Z,67.36
2019-06-15T11:10:47.809Z,67.27
2019-06-15T11:13:16.438Z,66.83
2019-06-15T11:15:44.869Z,64.97
2019-06-15T11:18:13.369Z,64.55
2019-06-15T11:20:46.729Z,64.72
2019-06-15T11:23:15.190Z,66.04
2019-06-15T11:25:43.651Z,66.02
2019-06-15T11:28:13.018Z,64.36
2019-06-15T11:30:45.941Z,65.07
2019-06-15T11:33:17.282Z,65.76
2019-06-15T11:35:48.849Z,66.42
2019-06-15T11:38:17.312Z,68.20
2019-06-15T11:40:45.915Z,69.58
2019-06-15T11:43:16.983Z,69.30
2019-06-15T11:45:48.331Z,71.47
2019-06-15T11:48:16.827Z,72.28
2019-06-15T11:50:45.209Z,72.64
2019-06-15T11:53:15.310Z,73.46
2019-06-15T11:55:45.251Z,74.43
2019-06-15T11:58:13.688Z,74.91
2019-06-15T12:00:42.383Z,74.21
2019-06-15T12:03:10.846Z,71.12
2019-06-15T12:05:39.279Z,71.73
2019-06-15T12:08:07.713Z,69.70
2019-06-15T12:10:36.150Z,68.67
2019-06-15T12:13:04.598Z,68.43
2019-06-15T12:15:33.016Z,70.42
2019-06-15T12:18:01.457Z,71.59
2019-06-15T12:20:29.908Z,71.06
2019-06-15T12:22:58.420Z,70.89
2019-06-15T12:25:26.861Z,70.71
2019-06-15T12:27:55.486Z,70.11
2019-06-15T12:30:29.721Z,68.97
2019-06-15T12:32:58.305Z,66.57
2019-06-15T12:35:29.916Z,66.89
2019-06-15T12:37:58.386Z,66.20
2019-06-15T12:40:26.888Z,66.00
2019-06-15T12:42:55.291Z,63.51
2019-06-15T12:45:23.888Z,62.10
2019-06-15T12:47:53.076Z,61.43
2019-06-15T12:50:21.562Z,58.79
2019-06-15T12:52:50.007Z,59.82
2019-06-15T12:55:18.512Z,59.94
2019-06-15T12:57:46.944Z,57.67
2019-06-15T13:00:16.117Z,56.62
2019-06-15T13:02:44.517Z,57.04
2019-06-15T13:05:13.250Z,56.71
2019-06-15T13:07:41.720Z,57.05
2019-06-15T13:10:10.443Z,55.98
2019-06-15T13:12:38.872Z,54.96
2019-06-15T13:15:08.756Z,55.45
2019-06-15T13:17:37.165Z,56.36
2019-06-15T13:20:08.508Z,55.65
2019-06-15T13:22:36.943Z,54.77
2019-06-15T13:25:08.664Z,53.68
2019-06-15T13:27:37.073Z,55.09
2019-06-15T13:30:06.851Z,55.47
2019-06-15T13:32:35.261Z,54.72
2019-06-15T13:35:05.567Z,55.25
2019-06-15T13:37:42.159Z,55.53
2019-06-15T13:40:06.388Z,54.35
2019-06-15T13:42:34.831Z,55.32
2019-06-15T13:45:05.017Z,55.15
2019-06-15T13:47:33.419Z,53.46
2019-06-15T13:50:01.926Z,54.25
2019-06-15T13:52:30.306Z,55.59
2019-06-15T13:54:58.781Z,54.15
2019-06-15T13:57:27.197Z,53.96
2019-06-15T13:59:55.638Z,54.46
2019-06-15T14:02:24.059Z,54.32
2019-06-15T14:04:52.485Z,54.55
2019-06-15T14:07:20.908Z,55.05
2019-06-15T14:09:49.328Z,54.81
2019-06-15T14:12:17.751Z,53.48
2019-06-15T14:14:46.179Z,54.66
2019-06-15T14:17:17.381Z,53.22
2019-06-15T14:19:45.794Z,53.50
2019-06-15T14:22:14.222Z,53.20
2019-06-15T14:24:42.648Z,53.98
2019-06-15T14:27:11.061Z,52.03
2019-06-15T14:29:39.503Z,53.41
2019-06-15T14:32:17.323Z,50.60
2019-06-15T14:34:56.144Z,52.50
2019-06-15T14:37:30.682Z,51.18
2019-06-15T14:40:04.850Z,52.79
2019-06-15T14:42:30.945Z,53.23
2019-06-15T14:44:59.400Z,52.48
2019-06-15T14:47:27.855Z,53.82
2019-06-15T14:49:56.264Z,52.95
2019-06-15T14:52:29.367Z,54.49
2019-06-15T14:54:57.951Z,53.98
2019-06-15T14:57:27.049Z,53.77
2019-06-15T15:00:04.428Z,54.27
2019-06-15T15:02:26.382Z,55.55
2019-06-15T15:04:56.537Z,55.77
2019-06-15T15:07:26.357Z,56.59
2019-06-15T15:09:56.681Z,58.15
2019-06-15T15:12:26.559Z,61.48
2019-06-15T15:14:56.530Z,62.45
2019-06-15T15:17:26.967Z,63.05
2019-06-15T15:19:57.414Z,63.50
2019-06-15T15:22:26.744Z,63.88
2019-06-15T15:24:56.170Z,65.62
2019-06-15T15:27:27.066Z,65.73
2019-06-15T15:29:56.988Z,68.47
2019-06-15T15:32:30.518Z,68.01
2019-06-15T15:34:56.017Z,68.15
2019-06-15T15:37:26.882Z,68.53
2019-06-15T15:39:56.516Z,68.50
2019-06-15T15:42:26.758Z,69.07
2019-06-15T15:44:56.585Z,69.13
2019-06-15T15:47:27.245Z,69.00
2019-06-15T15:49:57.603Z,67.50
2019-06-15T15:52:26.923Z,64.53
2019-06-15T15:54:56.536Z,63.51
2019-06-15T15:57:26.518Z,62.53
2019-06-15T15:59:56.344Z,63.36
2019-06-15T16:02:35.696Z,63.18
2019-06-15T16:04:57.874Z,63.57
2019-06-15T16:07:27.799Z,60.02
2019-06-15T16:09:56.501Z,58.12
2019-06-15T16:12:25.007Z,59.46
2019-06-15T16:14:53.483Z,58.31
2019-06-15T16:17:21.908Z,58.89
2019-06-15T16:19:50.329Z,58.06
2019-06-15T16:22:18.797Z,57.76
2019-06-15T16:24:48.084Z,56.79
2019-06-15T16:27:21.906Z,56.79
2019-06-15T16:29:51.854Z,58.18
2019-06-15T16:32:21.937Z,59.00
2019-06-15T16:34:50.373Z,58.26
2019-06-15T16:37:18.851Z,58.69
2019-06-15T16:39:47.291Z,58.46
2019-06-15T16:42:15.733Z,59.22
2019-06-15T16:44:46.796Z,58.99
2019-06-15T16:47:16.686Z,58.14
2019-06-15T16:49:46.482Z,57.17
2019-06-15T16:52:27.050Z,57.11
2019-06-15T16:54:55.486Z,57.54
2019-06-15T16:57:23.902Z,56.55
2019-06-15T16:59:52.321Z,57.33
2019-06-15T17:02:20.772Z,57.36
2019-06-15T17:04:49.199Z,58.01
2019-06-15T17:07:17.619Z,57.31
2019-06-15T17:09:46.592Z,57.63
2019-06-15T17:12:16.852Z,57.13
2019-06-15T17:14:45.172Z,56.92
2019-06-15T17:17:13.604Z,57.19
2019-06-15T17:19:42.044Z,57.07
2019-06-15T17:22:18.605Z,56.14
2019-06-15T17:24:50.095Z,56.23
2019-06-15T17:27:19.967Z,55.37
2019-06-15T17:29:46.920Z,56.74
2019-06-15T17:32:17.034Z,55.95
2019-06-15T17:34:46.927Z,56.62
2019-06-15T17:37:17.275Z,56.96
2019-06-15T17:39:46.634Z,55.99
2019-06-15T17:42:16.383Z,54.75
2019-06-15T17:44:46.200Z,55.53
2019-06-15T17:47:16.897Z,54.99
2019-06-15T17:49:46.856Z,55.62
2019-06-15T17:52:16.872Z,55.32
2019-06-15T17:54:46.666Z,56.16
2019-06-15T17:57:15.241Z,56.05
2019-06-15T17:59:43.678Z,55.64
2019-06-15T18:02:12.076Z,55.51
2019-06-15T18:04:42.940Z,55.48
2019-06-15T18:07:16.786Z,55.45
2019-06-15T18:09:46.608Z,55.86
2019-06-15T18:12:16.309Z,56.05
2019-06-15T18:14:46.502Z,57.13
2019-06-15T18:17:17.190Z,57.25
2019-06-15T18:19:46.956Z,56.60
2019-06-15T18:22:17.054Z,56.59
2019-06-15T18:24:46.659Z,58.06
2019-06-15T18:27:16.910Z,58.20
2019-06-15T18:29:46.460Z,57.22
2019-06-15T18:32:17.091Z,57.57
2019-06-15T18:34:46.491Z,57.99
2019-06-15T18:37:17.113Z,57.91
2019-06-15T18:39:46.754Z,58.57
2019-06-15T18:42:16.932Z,59.48
2019-06-15T18:44:47.942Z,59.63
2019-06-15T18:47:16.875Z,60.59
2019-06-15T18:49:47.394Z,60.80
2019-06-15T18:52:20.006Z,61.02
2019-06-15T18:54:50.041Z,61.03
2019-06-15T18:57:21.314Z,61.46
2019-06-15T18:59:49.815Z,62.12
2019-06-15T19:02:22.558Z,62.25
2019-06-15T19:04:52.882Z,62.51
2019-06-15T19:07:26.989Z,62.49
2019-06-15T19:09:56.040Z,62.56
2019-06-15T19:12:26.378Z,62.31
2019-06-15T19:14:56.172Z,62.17
2019-06-15T19:17:24.641Z,62.76
2019-06-15T19:19:57.213Z,63.08
2019-06-15T19:22:27.116Z,63.85
2019-06-15T19:24:57.092Z,63.79
2019-06-15T19:27:26.008Z,63.83
2019-06-15T19:29:56.504Z,63.86
2019-06-15T19:32:26.309Z,64.16
2019-06-15T19:34:56.889Z,65.10
2019-06-15T19:37:27.247Z,65.02
2019-06-15T19:39:58.361Z,64.16
2019-06-15T19:42:26.824Z,63.47
2019-06-15T19:44:56.236Z,64.70
2019-06-15T19:47:26.517Z,64.85
2019-06-15T19:49:56.839Z,64.84
2019-06-15T19:52:25.358Z,65.08
2019-06-15T19:55:01.235Z,66.12
2019-06-15T19:57:29.658Z,66.29
2019-06-15T19:59:58.229Z,66.07
2019-06-15T20:02:27.080Z,66.60
2019-06-15T20:05:11.049Z,67.35
2019-06-15T20:07:42.774Z,67.36
2019-06-15T20:10:11.888Z,67.42
2019-06-15T20:12:48.777Z,66.86
2019-06-15T20:15:26.807Z,68.06
2019-06-15T20:17:56.956Z,67.82
2019-06-15T20:20:26.690Z,66.89
2019-06-15T20:22:56.108Z,67.29
2019-06-15T20:25:26.698Z,66.61
2019-06-15T20:27:56.358Z,66.48
2019-06-15T20:30:24.933Z,66.22
2019-06-15T20:32:53.435Z,66.07
2019-06-15T20:35:21.841Z,66.42
2019-06-15T20:37:59.340Z,66.17
2019-06-15T20:40:27.746Z,66.32
2019-06-15T20:42:56.617Z,66.35
2019-06-15T20:45:26.809Z,66.67
2019-06-15T20:48:01.186Z,66.82
2019-06-15T20:50:29.596Z,67.06
2019-06-15T20:52:59.724Z,67.18
2019-06-15T20:55:28.122Z,67.28
2019-06-15T20:57:57.031Z,67.51
2019-06-15T21:00:26.342Z,67.35
2019-06-15T21:02:56.277Z,67.70
2019-06-15T21:05:38.957Z,68.56
2019-06-15T21:08:02.526Z,69.31
2019-06-15T21:10:30.903Z,69.46
2019-06-15T21:12:59.591Z,69.83
2019-06-15T21:15:31.093Z,69.81
2019-06-15T21:18:01.349Z,69.56
2019-06-15T21:20:29.791Z,69.86
2019-06-15T21:22:58.216Z,70.79
2019-06-15T21:25:26.658Z,71.76
2019-06-15T21:27:56.740Z,71.76
2019-06-15T21:30:27.078Z,71.60
2019-06-15T21:32:57.784Z,72.15
2019-06-15T21:35:26.711Z,72.52
2019-06-15T21:37:57.232Z,73.74
2019-06-15T21:40:27.543Z,73.75
2019-06-15T21:42:57.663Z,73.75
2019-06-15T21:45:27.742Z,74.00
2019-06-15T21:48:01.916Z,73.40
2019-06-15T21:50:30.315Z,73.68
2019-06-15T21:52:59.646Z,74.91
2019-06-15T21:55:28.070Z,75.59
2019-06-15T21:57:59.283Z,76.26
2019-06-15T22:00:48.631Z,75.45
2019-06-15T22:03:17.151Z,74.99
2019-06-15T22:06:02.724Z,75.00
2019-06-15T22:08:21.375Z,74.59
2019-06-15T22:10:49.797Z,74.97
2019-06-15T22:13:18.230Z,74.86
2019-06-15T22:15:46.823Z,74.55
2019-06-15T22:18:16.367Z,73.98
2019-06-15T22:20:47.133Z,73.54
2019-06-15T22:23:16.249Z,73.11
2019-06-15T22:25:46.489Z,73.17
2019-06-15T22:28:16.491Z,73.13
2019-06-15T22:30:46.154Z,73.12
2019-06-15T22:33:16.477Z,73.53
2019-06-15T22:35:47.283Z,73.54
2019-06-15T22:38:15.203Z,73.39
2019-06-15T22:40:43.639Z,73.80
2019-06-15T22:43:12.067Z,73.78
2019-06-15T22:45:40.505Z,74.06
2019-06-15T22:48:08.985Z,74.79
2019-06-15T22:50:37.412Z,75.76
2019-06-15T22:53:07.274Z,75.33
2019-06-15T22:55:36.958Z,75.05
2019-06-15T22:58:06.509Z,74.98
2019-06-15T23:00:37.407Z,74.84
2019-06-15T23:03:06.283Z,74.53
2019-06-15T23:05:35.085Z,74.33
2019-06-15T23:08:03.519Z,74.75
2019-06-15T23:10:31.959Z,74.48
2019-06-15T23:13:00.369Z,74.34
2019-06-15T23:15:28.810Z,74.70
2019-06-15T23:17:57.348Z,75.26
2019-06-15T23:20:26.977Z,75.65
2019-06-15T23:22:56.082Z,75.16
2019-06-15T23:25:27.252Z,74.73
2019-06-15T23:27:56.334Z,74.81
2019-06-15T23:30:24.818Z,75.04
2019-06-15T23:32:56.038Z,74.77
2019-06-15T23:35:26.165Z,75.36
2019-06-15T23:37:55.933Z,75.03
2019-06-15T23:40:26.919Z,74.53
2019-06-15T23:42:56.588Z,74.40
2019-06-15T23:45:26.784Z,74.25
2019-06-15T23:47:57.486Z,74.77
2019-06-15T23:50:26.357Z,74.83
2019-06-15T23:52:55.001Z,74.77
2019-06-15T23:55:23.412Z,75.44
2019-06-15T23:57:51.834Z,75.57
